Time,TemperatureF,DewpointF,PressureIn,WindDirection,WindDirectionDegrees,WindSpeedMPH,WindSpeedGustMPH,Humidity,HourlyPrecipIn,Conditions,Clouds,dailyrainin,SoftwareType,DateUTC
2013-01-22 00:02:00,46.3,33.0,29.98,NNW,335,0.0,-999.0,61,-99.99,,,0.00,weatherlink.com 1.10,2013-01-22 08:02:00,
2013-01-22 00:17:00,45.8,34.0,29.98,NNW,335,0.0,-999.0,63,-99.99,,,0.00,weatherlink.com 1.10,2013-01-22 08:17:00,
2013-01-22 00:32:00,45.0,33.0,29.97,NNW,335,0.0,-999.0,64,-99.99,,,0.00,weatherlink.com 1.10,2013-01-22 08:32:00,
2013-01-22 00:47:00,43.9,33.0,29.97,NNW,335,0.0,-999.0,66,-99.99,,,0.00,weatherlink.com 1.10,2013-01-22 08:47:00,
2013-01-22 01:02:00,43.3,33.0,29.98,NNW,335,0.0,-999.0,67,-99.99,,,0.00,weatherlink.com 1.10,2013-01-22 09:02:00,
2013-01-22 01:17:00,43.1,34.0,29.98,NNW,335,0.0,-999.0,70,-99.99,,,0.00,weatherlink.com 1.10,2013-01-22 09:17:00,
2013-01-22 01:32:00,43.1,34.0,29.98,NNW,335,0.0,-999.0,70,-99.99,,,0.00,weatherlink.com 1.10,2013-01-22 09:32:00,
2013-01-22 01:47:00,42.5,34.0,29.98,NNW,335,0.0,-999.0,71,-99.99,,,0.00,weatherlink.com 1.10,2013-01-22 09:47:00,
2013-01-22 02:02:00,42.2,34.0,29.97,NNW,335,0.0,-999.0,72,-99.99,,,0.00,weatherlink.com 1.10,2013-01-22 10:02:00,
2013-01-22 02:17:00,42.2,34.0,29.97,NNW,335,0.0,-999.0,72,-99.99,,,0.00,weatherlink.com 1.10,2013-01-22 10:17:00,
2013-01-22 02:32:00,41.7,33.0,29.97,NNW,335,0.0,-999.0,72,-99.99,,,0.00,weatherlink.com 1.10,2013-01-22 10:32:00,
2013-01-22 02:47:00,41.1,33.0,29.98,NNW,335,0.0,-999.0,73,-99.99,,,0.00,weatherlink.com 1.10,2013-01-22 10:47:00,
2013-01-22 03:02:00,40.8,33.0,29.97,NNW,335,0.0,-999.0,74,-99.99,,,0.00,weatherlink.com 1.10,2013-01-22 11:02:00,
2013-01-22 03:17:00,40.6,33.0,29.97,NNW,335,0.0,-999.0,75,-99.99,,,0.00,weatherlink.com 1.10,2013-01-22 11:17:00,
2013-01-22 03:32:00,40.1,33.0,29.97,NNW,335,0.0,-999.0,75,-99.99,,,0.00,weatherlink.com 1.10,2013-01-22 11:32:00,
2013-01-22 03:47:00,39.5,32.0,29.97,NNW,335,0.0,-999.0,75,-99.99,,,0.00,weatherlink.com 1.10,2013-01-22 11:47:00,
2013-01-22 04:18:00,39.8,32.0,29.97,NE,51,2.0,-999.0,74,-99.99,,,0.00,weatherlink.com 1.10,2013-01-22 12:18:00,
2013-01-22 04:33:00,40.4,32.0,29.97,NE,51,0.0,-999.0,71,-99.99,,,0.00,weatherlink.com 1.10,2013-01-22 12:33:00,
2013-01-22 04:48:00,40.3,31.0,29.97,NE,51,0.0,-999.0,70,-99.99,,,0.00,weatherlink.com 1.10,2013-01-22 12:48:00,
2013-01-22 05:03:00,40.0,31.0,29.97,NE,51,0.0,-999.0,69,-99.99,,,0.00,weatherlink.com 1.10,2013-01-22 13:03:00,
2013-01-22 05:18:00,40.0,31.0,29.97,NE,51,0.0,-999.0,69,-99.99,,,0.00,weatherlink.com 1.10,2013-01-22 13:18:00,
2013-01-22 05:33:00,39.7,30.0,29.98,NE,51,0.0,-999.0,69,-99.99,,,0.00,weatherlink.com 1.10,2013-01-22 13:33:00,
2013-01-22 05:48:00,39.1,30.0,29.99,NE,51,0.0,-999.0,71,-99.99,,,0.00,weatherlink.com 1.10,2013-01-22 13:48:00,
2013-01-22 06:03:00,38.9,31.0,29.99,NE,51,0.0,-999.0,73,-99.99,,,0.00,weatherlink.com 1.10,2013-01-22 14:03:00,
2013-01-22 06:18:00,38.6,31.0,29.99,NE,51,0.0,-999.0,73,-99.99,,,0.00,weatherlink.com 1.10,2013-01-22 14:18:00,
2013-01-22 06:33:00,38.0,31.0,29.99,NE,51,0.0,-999.0,75,-99.99,,,0.00,weatherlink.com 1.10,2013-01-22 14:33:00,
2013-01-22 06:48:00,37.9,31.0,30.00,NE,51,0.0,-999.0,75,-99.99,,,0.00,weatherlink.com 1.10,2013-01-22 14:48:00,
2013-01-22 07:03:00,37.7,30.0,30.00,NE,51,0.0,-999.0,75,-99.99,,,0.00,weatherlink.com 1.10,2013-01-22 15:03:00,
2013-01-22 07:18:00,37.6,31.0,30.00,NE,51,0.0,-999.0,76,-99.99,,,0.00,weatherlink.com 1.10,2013-01-22 15:18:00,
2013-01-22 07:33:00,38.3,32.0,30.00,NE,51,0.0,-999.0,77,-99.99,,,0.00,weatherlink.com 1.10,2013-01-22 15:33:00,
2013-01-22 07:48:00,42.3,35.0,30.00,NE,51,0.0,-999.0,74,-99.99,,,0.00,weatherlink.com 1.10,2013-01-22 15:48:00,
2013-01-22 08:04:00,45.2,36.0,30.00,NE,51,0.0,-999.0,70,-99.99,,,0.00,weatherlink.com 1.10,2013-01-22 16:04:00,
2013-01-22 08:18:00,47.7,36.0,30.01,NE,51,0.0,-999.0,63,-99.99,,,0.00,weatherlink.com 1.10,2013-01-22 16:18:00,
2013-01-22 08:33:00,52.4,37.0,30.01,NE,51,0.0,-999.0,56,-99.99,,,0.00,weatherlink.com 1.10,2013-01-22 16:33:00,
2013-01-22 08:48:00,55.8,36.0,30.01,NE,51,3.0,-999.0,48,-99.99,,,0.00,weatherlink.com 1.10,2013-01-22 16:48:00,
2013-01-22 09:03:00,57.8,35.0,30.01,NE,51,0.0,-999.0,43,-99.99,,,0.00,weatherlink.com 1.10,2013-01-22 17:03:00,
2013-01-22 09:33:00,63.4,32.0,30.02,NE,35,0.0,-999.0,31,-99.99,,,0.00,weatherlink.com 1.10,2013-01-22 17:33:00,
2013-01-22 09:48:00,65.9,31.0,30.02,NE,35,0.0,-999.0,27,-99.99,,,0.00,weatherlink.com 1.10,2013-01-22 17:48:00,
2013-01-22 10:03:00,67.6,29.0,30.02,NE,40,2.0,-999.0,24,-99.99,,,0.00,weatherlink.com 1.10,2013-01-22 18:03:00,
2013-01-22 10:18:00,69.4,31.0,30.02,NE,45,5.0,-999.0,24,-99.99,,,0.00,weatherlink.com 1.10,2013-01-22 18:18:00,
2013-01-22 10:33:00,72.0,30.0,30.01,ENE,68,0.0,-999.0,21,-99.99,,,0.00,weatherlink.com 1.10,2013-01-22 18:33:00,
2013-01-22 10:48:00,73.6,29.0,30.01,East,93,0.0,-999.0,19,-99.99,,,0.00,weatherlink.com 1.10,2013-01-22 18:48:00,
2013-01-22 11:03:00,75.3,27.0,30.00,NE,53,0.0,-999.0,17,-99.99,,,0.00,weatherlink.com 1.10,2013-01-22 19:03:00,
2013-01-22 11:19:00,77.2,26.0,30.00,ENE,75,2.0,-999.0,15,-99.99,,,0.00,weatherlink.com 1.10,2013-01-22 19:19:00,
2013-01-22 11:34:00,77.4,25.0,29.98,SE,130,0.0,-999.0,14,-99.99,,,0.00,weatherlink.com 1.10,2013-01-22 19:34:00,
2013-01-22 11:49:00,79.2,24.0,29.97,SE,136,0.0,-999.0,13,-99.99,,,0.00,weatherlink.com 1.10,2013-01-22 19:49:00,
2013-01-22 12:04:00,79.2,26.0,29.96,SSW,208,1.0,-999.0,14,-99.99,,,0.00,weatherlink.com 1.10,2013-01-22 20:04:00,
2013-01-22 12:19:00,80.1,21.0,29.96,ENE,74,0.0,-999.0,11,-99.99,,,0.00,weatherlink.com 1.10,2013-01-22 20:19:00,
2013-01-22 12:34:00,80.6,21.0,29.95,SSE,150,0.0,-999.0,11,-99.99,,,0.00,weatherlink.com 1.10,2013-01-22 20:34:00,
2013-01-22 12:49:00,80.9,19.0,29.94,South,189,0.0,-999.0,10,-99.99,,,0.00,weatherlink.com 1.10,2013-01-22 20:49:00,
2013-01-22 13:04:00,81.5,20.0,29.94,SW,218,0.0,-999.0,10,-99.99,,,0.00,weatherlink.com 1.10,2013-01-22 21:04:00,
2013-01-22 13:19:00,81.8,22.0,29.94,West,277,0.0,-999.0,11,-99.99,,,0.00,weatherlink.com 1.10,2013-01-22 21:19:00,
2013-01-22 13:34:00,80.9,19.0,29.94,West,273,2.0,-999.0,10,-99.99,,,0.00,weatherlink.com 1.10,2013-01-22 21:34:00,
2013-01-22 13:49:00,80.0,27.0,29.94,SSW,199,5.0,-999.0,14,-99.99,,,0.00,weatherlink.com 1.10,2013-01-22 21:49:00,
2013-01-22 14:04:00,78.9,24.0,29.94,SW,221,6.0,-999.0,13,-99.99,,,0.00,weatherlink.com 1.10,2013-01-22 22:04:00,
2013-01-22 14:19:00,78.6,22.0,29.94,SW,232,0.0,-999.0,12,-99.99,,,0.00,weatherlink.com 1.10,2013-01-22 22:19:00,
2013-01-22 14:34:00,79.2,18.0,29.94,SW,222,4.0,-999.0,10,-99.99,,,0.00,weatherlink.com 1.10,2013-01-22 22:34:00,
2013-01-22 14:49:00,78.6,18.0,29.94,WSW,244,2.0,-999.0,10,-99.99,,,0.00,weatherlink.com 1.10,2013-01-22 22:49:00,
2013-01-22 15:04:00,77.6,17.0,29.94,WSW,244,1.0,-999.0,10,-99.99,,,0.00,weatherlink.com 1.10,2013-01-22 23:04:00,
2013-01-22 15:19:00,77.4,21.0,29.94,WSW,244,0.0,-999.0,12,-99.99,,,0.00,weatherlink.com 1.10,2013-01-22 23:19:00,
2013-01-22 15:34:00,76.7,18.0,29.93,WSW,244,0.0,-999.0,11,-99.99,,,0.00,weatherlink.com 1.10,2013-01-22 23:34:00,
2013-01-22 15:49:00,76.1,22.0,29.93,WSW,244,0.0,-999.0,13,-99.99,,,0.00,weatherlink.com 1.10,2013-01-22 23:49:00,
2013-01-22 16:04:00,75.0,26.0,29.93,WSW,244,0.0,-999.0,16,-99.99,,,0.00,weatherlink.com 1.10,2013-01-23 00:04:00,
2013-01-22 16:19:00,73.7,26.0,29.93,WSW,244,0.0,-999.0,17,-99.99,,,0.00,weatherlink.com 1.10,2013-01-23 00:19:00,
2013-01-22 16:34:00,72.4,29.0,29.94,WSW,244,0.0,-999.0,20,-99.99,,,0.00,weatherlink.com 1.10,2013-01-23 00:34:00,
2013-01-22 16:49:00,70.5,29.0,29.94,WSW,244,0.0,-999.0,21,-99.99,,,0.00,weatherlink.com 1.10,2013-01-23 00:49:00,
2013-01-22 17:04:00,68.9,28.0,29.94,WSW,244,0.0,-999.0,22,-99.99,,,0.00,weatherlink.com 1.10,2013-01-23 01:04:00,
2013-01-22 17:19:00,67.4,31.0,29.95,WSW,251,1.0,-999.0,26,-99.99,,,0.00,weatherlink.com 1.10,2013-01-23 01:19:00,
2013-01-22 17:34:00,66.6,31.0,29.95,WSW,254,0.0,-999.0,27,-99.99,,,0.00,weatherlink.com 1.10,2013-01-23 01:34:00,
2013-01-22 17:49:00,65.7,28.0,29.95,WSW,254,0.0,-999.0,24,-99.99,,,0.00,weatherlink.com 1.10,2013-01-23 01:49:00,
2013-01-22 18:04:00,64.3,28.0,29.96,WSW,254,0.0,-999.0,25,-99.99,,,0.00,weatherlink.com 1.10,2013-01-23 02:04:00,
2013-01-22 18:19:00,63.0,28.0,29.96,WSW,254,0.0,-999.0,27,-99.99,,,0.00,weatherlink.com 1.10,2013-01-23 02:19:00,
2013-01-22 18:34:00,61.9,30.0,29.97,WSW,254,0.0,-999.0,30,-99.99,,,0.00,weatherlink.com 1.10,2013-01-23 02:34:00,
2013-01-22 18:49:00,60.4,31.0,29.97,WSW,254,0.0,-999.0,33,-99.99,,,0.00,weatherlink.com 1.10,2013-01-23 02:49:00,
2013-01-22 19:04:00,59.3,31.0,29.97,WSW,254,0.0,-999.0,35,-99.99,,,0.00,weatherlink.com 1.10,2013-01-23 03:04:00,
2013-01-22 19:19:00,57.9,32.0,29.97,WSW,254,0.0,-999.0,38,-99.99,,,0.00,weatherlink.com 1.10,2013-01-23 03:19:00,
2013-01-22 19:34:00,56.7,32.0,29.97,WSW,254,0.0,-999.0,39,-99.99,,,0.00,weatherlink.com 1.10,2013-01-23 03:34:00,
2013-01-22 20:04:00,54.2,33.0,29.97,WSW,254,0.0,-999.0,44,-99.99,,,0.00,weatherlink.com 1.10,2013-01-23 04:04:00,
2013-01-22 20:19:00,53.3,33.0,29.98,WSW,254,0.0,-999.0,47,-99.99,,,0.00,weatherlink.com 1.10,2013-01-23 04:19:00,
2013-01-22 20:34:00,52.6,34.0,29.98,WSW,254,0.0,-999.0,49,-99.99,,,0.00,weatherlink.com 1.10,2013-01-23 04:34:00,
2013-01-22 20:49:00,52.5,34.0,29.98,WSW,254,0.0,-999.0,50,-99.99,,,0.00,weatherlink.com 1.10,2013-01-23 04:49:00,
2013-01-22 21:04:00,51.7,34.0,29.98,WSW,254,0.0,-999.0,52,-99.99,,,0.00,weatherlink.com 1.10,2013-01-23 05:04:00,
2013-01-22 21:19:00,51.3,34.0,29.99,WSW,254,0.0,-999.0,53,-99.99,,,0.00,weatherlink.com 1.10,2013-01-23 05:19:00,
2013-01-22 21:34:00,50.7,35.0,29.99,WSW,254,0.0,-999.0,55,-99.99,,,0.00,weatherlink.com 1.10,2013-01-23 05:34:00,
2013-01-22 21:49:00,50.8,35.0,29.99,WSW,254,0.0,-999.0,56,-99.99,,,0.00,weatherlink.com 1.10,2013-01-23 05:49:00,
2013-01-22 22:04:00,50.9,35.0,29.99,WSW,254,0.0,-999.0,56,-99.99,,,0.00,weatherlink.com 1.10,2013-01-23 06:04:00,
2013-01-22 22:19:00,50.9,36.0,29.99,WSW,254,0.0,-999.0,57,-99.99,,,0.00,weatherlink.com 1.10,2013-01-23 06:19:00,
2013-01-22 22:34:00,51.0,36.0,29.99,WSW,254,0.0,-999.0,56,-99.99,,,0.00,weatherlink.com 1.10,2013-01-23 06:34:00,
2013-01-22 22:49:00,50.9,36.0,29.99,WSW,254,0.0,-999.0,57,-99.99,,,0.00,weatherlink.com 1.10,2013-01-23 06:49:00,
2013-01-22 23:04:00,50.7,36.0,29.99,WSW,254,0.0,-999.0,57,-99.99,,,0.00,weatherlink.com 1.10,2013-01-23 07:04:00,
2013-01-22 23:19:00,50.6,36.0,29.99,WSW,254,0.0,-999.0,58,-99.99,,,0.00,weatherlink.com 1.10,2013-01-23 07:19:00,
2013-01-22 23:34:00,50.1,37.0,29.99,WSW,254,0.0,-999.0,60,-99.99,,,0.00,weatherlink.com 1.10,2013-01-23 07:34:00,
2013-01-22 23:49:00,49.6,36.0,29.98,WSW,254,0.0,-999.0,61,-99.99,,,0.00,weatherlink.com 1.10,2013-01-23 07:49:00,